createdAt,value
2019-05-03T00:00:19.911Z,13.33
2019-05-03T00:05:27.620Z,14.01
2019-05-03T00:10:35.194Z,14.36
2019-05-03T00:15:42.950Z,16.43
2019-05-03T00:20:50.463Z,16.04
2019-05-03T00:25:58.100Z,15.61
2019-05-03T00:31:05.737Z,16.10
2019-05-03T00:36:13.393Z,15.88
2019-05-03T00:41:21.563Z,14.06
2019-05-03T00:46:28.682Z,14.81
2019-05-03T00:51:36.437Z,15.22
2019-05-03T00:56:44.540Z,15.19
2019-05-03T01:01:52.169Z,15.24
2019-05-03T01:06:57.257Z,14.30
2019-05-03T01:12:04.705Z,14.41
2019-05-03T01:17:12.295Z,14.23
2019-05-03T01:22:19.909Z,14.19
2019-05-03T01:27:27.412Z,13.97
2019-05-03T01:32:34.985Z,13.98
2019-05-03T01:37:42.689Z,13.75
2019-05-03T01:42:51.821Z,13.60
2019-05-03T01:47:57.970Z,13.57
2019-05-03T01:53:05.964Z,13.55
2019-05-03T01:58:13.785Z,12.87
2019-05-03T02:03:21.792Z,11.27
2019-05-03T02:08:28.820Z,10.72
2019-05-03T02:13:36.363Z,10.55
2019-05-03T02:18:43.818Z,9.68
2019-05-03T02:23:52.053Z,9.75
2019-05-03T02:28:58.999Z,9.27
2019-05-03T02:34:06.428Z,9.55
2019-05-03T02:39:14.019Z,9.04
2019-05-03T02:44:21.623Z,9.12
2019-05-03T02:49:29.057Z,9.05
2019-05-03T02:54:36.581Z,9.81
2019-05-03T02:59:45.325Z,8.89
2019-05-03T03:04:51.859Z,9.80
2019-05-03T03:09:59.289Z,12.67
2019-05-03T03:15:06.762Z,12.50
2019-05-03T03:20:16.169Z,13.38
2019-05-03T03:25:21.812Z,14.61
2019-05-03T03:30:29.848Z,16.60
2019-05-03T03:35:38.563Z,17.16
2019-05-03T03:40:45.367Z,16.81
2019-05-03T03:45:52.412Z,17.84
2019-05-03T03:51:00.007Z,16.96
2019-05-03T03:56:07.356Z,17.33
2019-05-03T04:01:15.673Z,16.54
2019-05-03T04:06:22.447Z,14.53
2019-05-03T04:11:30.073Z,14.84
2019-05-03T04:16:37.615Z,15.04
2019-05-03T04:21:45.434Z,16.01
2019-05-03T04:26:52.660Z,14.90
2019-05-03T04:32:00.369Z,15.75
2019-05-03T04:37:07.995Z,15.96
2019-05-03T04:42:16.474Z,16.91
2019-05-03T04:47:26.058Z,15.62
2019-05-03T04:52:32.281Z,15.92
2019-05-03T04:57:45.756Z,15.53
2019-05-03T05:02:48.080Z,15.24
2019-05-03T05:07:55.845Z,15.34
2019-05-03T05:13:05.227Z,14.56
2019-05-03T05:18:10.671Z,14.33
2019-05-03T05:23:18.278Z,14.82
2019-05-03T05:28:25.950Z,15.44
2019-05-03T05:33:35.224Z,16.25
2019-05-03T05:38:40.973Z,15.69
2019-05-03T05:43:48.828Z,15.89
2019-05-03T05:48:58.010Z,9.13
2019-05-03T05:54:06.317Z,7.13
2019-05-03T05:59:14.844Z,5.83
2019-05-03T06:04:21.236Z,5.76
2019-05-03T06:09:29.800Z,5.24
2019-05-03T06:14:37.229Z,4.98
2019-05-03T06:19:44.949Z,5.20
2019-05-03T06:24:54.070Z,4.08
2019-05-03T06:30:00.835Z,4.60
2019-05-03T06:35:08.292Z,4.65
2019-05-03T06:40:15.844Z,4.38
2019-05-03T06:45:25.110Z,4.95
2019-05-03T06:50:31.633Z,4.77
2019-05-03T06:55:44.454Z,3.85
2019-05-03T07:00:47.448Z,5.13
2019-05-03T07:05:56.208Z,6.49
2019-05-03T07:11:05.104Z,4.59
2019-05-03T07:16:10.995Z,4.89
2019-05-03T07:21:18.418Z,4.00
2019-05-03T07:26:26.889Z,5.00
2019-05-03T07:31:35.475Z,3.91
2019-05-03T07:36:44.633Z,4.94
2019-05-03T07:41:50.896Z,4.05
2019-05-03T07:46:58.290Z,4.28
2019-05-03T07:48:35.501Z,4.58
2019-05-03T07:53:45.160Z,4.93
2019-05-03T07:59:00.111Z,3.52
2019-05-03T08:03:58.209Z,3.83
2019-05-03T08:09:06.617Z,4.50
2019-05-03T08:14:17.778Z,4.17
2019-05-03T08:19:24.444Z,3.53
2019-05-03T08:24:30.759Z,3.87
2019-05-03T08:29:38.424Z,3.60
2019-05-03T08:34:46.573Z,4.06
2019-05-03T08:39:55.179Z,3.59
2019-05-03T08:45:04.424Z,3.89
2019-05-03T08:50:09.572Z,4.51
2019-05-03T08:55:17.128Z,4.08
2019-05-03T09:00:24.886Z,4.09
2019-05-03T09:05:31.363Z,3.67
2019-05-03T09:10:39.116Z,4.19
2019-05-03T09:15:46.766Z,3.77
2019-05-03T09:20:55.475Z,4.43
2019-05-03T09:26:01.985Z,4.35
2019-05-03T09:31:09.506Z,4.02
2019-05-03T09:36:17.052Z,3.62
2019-05-03T09:41:25.578Z,3.18
2019-05-03T09:46:32.358Z,4.65
2019-05-03T09:51:40.323Z,4.37
2019-05-03T10:01:55.899Z,3.26
2019-05-03T10:07:03.568Z,3.77
2019-05-03T10:12:11.100Z,5.52
2019-05-03T10:17:18.766Z,3.66
2019-05-03T10:22:26.418Z,3.84
2019-05-03T10:27:34.702Z,4.80
2019-05-03T10:32:41.420Z,3.59
2019-05-03T10:37:49.077Z,4.09
2019-05-03T10:42:56.762Z,3.41
2019-05-03T10:48:04.858Z,4.52
2019-05-03T10:53:12.043Z,3.64
2019-05-03T10:58:19.998Z,3.96
2019-05-03T11:03:27.466Z,3.51
2019-05-03T11:08:35.011Z,3.73
2019-05-03T11:13:42.606Z,3.73
2019-05-03T11:18:50.050Z,3.48
2019-05-03T11:23:57.631Z,3.89
2019-05-03T11:29:05.590Z,4.20
2019-05-03T11:34:15.123Z,3.43
2019-05-03T11:39:20.478Z,4.51
2019-05-03T11:44:28.837Z,4.31
2019-05-03T11:49:37.317Z,3.54
2019-05-03T11:54:45.490Z,4.69
2019-05-03T11:59:54.649Z,5.02
2019-05-03T12:05:00.207Z,4.58
2019-05-03T12:10:16.956Z,4.72
2019-05-03T12:15:15.219Z,3.98
2019-05-03T12:20:23.571Z,4.25
2019-05-03T12:25:30.049Z,4.16
2019-05-03T12:30:36.780Z,4.71
2019-05-03T12:35:46.230Z,3.91
2019-05-03T12:40:51.880Z,3.81
2019-05-03T12:45:59.421Z,3.96
2019-05-03T12:51:07.654Z,5.35
2019-05-03T12:56:22.572Z,4.33
2019-05-03T13:01:22.294Z,4.27
2019-05-03T13:06:30.195Z,3.78
2019-05-03T13:11:51.138Z,3.87
2019-05-03T13:16:45.991Z,4.42
2019-05-03T13:21:55.530Z,4.92
2019-05-03T13:27:01.115Z,3.94
2019-05-03T13:32:08.675Z,4.90
2019-05-03T13:37:17.044Z,5.58
2019-05-03T13:42:25.171Z,4.90
2019-05-03T13:47:37.126Z,4.40
2019-05-03T13:52:34.853Z,5.16
2019-05-03T13:57:42.296Z,4.58
2019-05-03T14:02:49.877Z,5.13
2019-05-03T14:07:57.421Z,5.82
2019-05-03T14:13:05.604Z,4.54
2019-05-03T14:18:15.037Z,4.64
2019-05-03T14:23:20.017Z,5.93
2019-05-03T14:28:27.402Z,5.38
2019-05-03T14:33:35.493Z,5.83
2019-05-03T14:38:46.755Z,5.72
2019-05-03T14:43:50.468Z,5.61
2019-05-03T14:48:58.315Z,6.07
2019-05-03T14:54:08.138Z,6.18
2019-05-03T14:59:16.313Z,7.03
2019-05-03T15:04:25.510Z,7.25
2019-05-03T15:09:31.368Z,5.43
2019-05-03T15:14:39.047Z,6.93
2019-05-03T15:19:46.657Z,5.95
2019-05-03T15:24:54.601Z,6.97
2019-05-03T15:30:01.729Z,5.51
2019-05-03T15:35:10.101Z,6.01
2019-05-03T15:40:17.863Z,6.12
2019-05-03T15:45:26.049Z,5.79
2019-05-03T15:50:35.540Z,5.72
2019-05-03T15:55:41.549Z,5.75
2019-05-03T16:00:49.747Z,5.95
2019-05-03T16:05:57.594Z,6.05
2019-05-03T16:11:05.441Z,6.83
2019-05-03T16:16:12.467Z,5.65
2019-05-03T16:21:20.079Z,5.63
2019-05-03T16:26:27.661Z,5.28
2019-05-03T16:31:35.323Z,5.82
2019-05-03T16:36:42.674Z,6.28
2019-05-03T16:41:51.035Z,5.11
2019-05-03T16:46:59.105Z,5.23
2019-05-03T16:52:07.702Z,6.20
2019-05-03T16:57:17.351Z,6.24
2019-05-03T17:02:24.502Z,5.84
2019-05-03T17:07:29.865Z,6.16
2019-05-03T17:12:37.054Z,5.63
2019-05-03T17:17:45.595Z,6.30
2019-05-03T17:22:55.395Z,7.09
2019-05-03T17:28:01.874Z,5.82
2019-05-03T17:33:09.621Z,6.47
2019-05-03T17:38:17.305Z,5.84
2019-05-03T17:43:24.613Z,6.37
2019-05-03T17:48:32.474Z,5.47
2019-05-03T17:53:40.554Z,7.05
2019-05-03T17:58:47.984Z,6.04
2019-05-03T18:04:06.077Z,6.37
2019-05-03T18:09:04.443Z,5.60
2019-05-03T18:14:10.665Z,6.40
2019-05-03T18:19:18.890Z,6.22
2019-05-03T18:24:30.281Z,6.31
2019-05-03T18:29:29.069Z,5.09
2019-05-03T18:34:37.401Z,5.79
2019-05-03T18:39:47.060Z,4.74
2019-05-03T18:44:55.215Z,5.27
2019-05-03T18:50:06.299Z,5.33
2019-05-03T18:55:06.451Z,5.62
2019-05-03T19:00:08.047Z,6.07
2019-05-03T19:05:15.283Z,5.82
2019-05-03T19:10:24.686Z,6.29
2019-05-03T19:15:30.913Z,6.10
2019-05-03T19:20:38.615Z,5.61
2019-05-03T19:25:49.367Z,6.02
2019-05-03T19:30:54.937Z,6.32
2019-05-03T19:36:01.988Z,6.32
2019-05-03T19:41:09.996Z,6.28
2019-05-03T19:46:18.063Z,5.74
2019-05-03T19:51:25.726Z,6.75
2019-05-03T19:56:33.733Z,5.89
2019-05-03T20:01:40.977Z,5.99
2019-05-03T20:06:48.603Z,6.54
2019-05-03T20:11:56.173Z,7.01
2019-05-03T20:17:04.723Z,6.84
2019-05-03T20:22:11.265Z,7.24
2019-05-03T20:27:18.846Z,5.96
2019-05-03T20:32:27.071Z,6.22
2019-05-03T20:42:37.649Z,7.02
2019-05-03T20:47:45.629Z,6.90
2019-05-03T20:52:55.001Z,6.99
2019-05-03T20:58:02.311Z,7.73
2019-05-03T21:03:15.317Z,8.22
2019-05-03T21:08:12.207Z,8.74
2019-05-03T21:13:20.346Z,7.50
2019-05-03T21:18:35.319Z,7.89
2019-05-03T21:23:34.398Z,8.52
2019-05-03T21:28:40.735Z,7.09
2019-05-03T21:33:48.386Z,7.90
2019-05-03T21:38:59.870Z,8.10
2019-05-03T21:43:59.150Z,7.38
2019-05-03T21:49:09.743Z,8.41
2019-05-03T21:54:08.172Z,8.55
2019-05-03T21:59:16.380Z,8.30
2019-05-03T22:04:24.885Z,9.70
2019-05-03T22:09:38.232Z,8.66
2019-05-03T22:14:38.144Z,9.73
2019-05-03T22:19:46.387Z,9.52
2019-05-03T22:24:55.416Z,10.51
2019-05-03T22:30:02.442Z,11.12
2019-05-03T22:35:10.379Z,11.09
2019-05-03T22:40:18.848Z,11.65
2019-05-03T22:45:26.542Z,11.76
2019-05-03T22:50:34.712Z,13.09
2019-05-03T22:55:42.795Z,13.89
2019-05-03T23:00:50.274Z,12.72
2019-05-03T23:05:58.161Z,13.96
2019-05-03T23:11:05.521Z,14.27
2019-05-03T23:16:14.473Z,14.20
2019-05-03T23:21:22.156Z,10.65
2019-05-03T23:26:30.178Z,9.97
2019-05-03T23:31:38.149Z,9.63
2019-05-03T23:36:46.027Z,9.05
2019-05-03T23:41:55.567Z,9.30
2019-05-03T23:47:01.314Z,9.39
2019-05-03T23:52:08.567Z,8.91
2019-05-03T23:57:16.333Z,9.74
